Latest Coastal Weather Observations for Hindmarsh Island

IDS60701

Issued at 12:25 pm CST Wednesday 3 September 2014 (issued every 10 minutes, with the page automatically refreshed every 10 minutes)

About coastal observations | Map of coastal stations | Coastal observations for SA | Marine services | Other Formats
Station Details ID: 023894 Name: HINDMARSH ISLAND AWS Lat: -35.52 Lon: 138.82 Height: 11.0 m
Data from the previous 72 hours. | See also: Recent months at Hindmarsh Island
Date/Time
CST
Temp

°C
Wind Pressure Rain
since 9am
mm
Weather Cloud Vis
km
Sea
Height
m
Swell
Dir
 
Speed
knots
Gust
knots
hPa Trend Height
m
Period
s
Dir
03/12:00pm 13.3 NNE 9 14 1022.8 - 0.0 - - - - - - -
03/11:30am 13.5 NNE 11 15 1023.2 - 0.0 - - - - - - -
03/11:00am 13.4 NNE 12 17 1023.6 - 0.0 - - - - - - -
03/10:30am 12.5 NNE 12 16 1023.9 - 0.0 - - - - - - -
03/10:00am 11.8 NNE 11 16 1024.2 - 0.0 - - - - - - -
03/09:30am 11.7 N 12 15 1024.5 - 0.0 - - - - - - -
03/09:00am 9.9 NNE 10 13 1025.1 - 0.0 Haze Mostly cloudy 8 - - - -
03/08:30am 9.6 N 9 13 1025.1 - 0.0 - - - - - - -
03/08:00am 8.8 N 9 12 1026.1 - 0.0 - - - - - - -
03/07:30am 8.3 N 9 11 1025.2 - 0.0 - - - - - - -
03/07:00am 7.4 N 7 8 1025.3 - 0.0 - - - - - - -
03/06:30am 7.2 N 8 9 1024.8 - 0.0 - - - - - - -
03/06:00am 7.3 NNE 9 11 1024.6 - 0.0 - - - - - - -
03/05:30am 7.5 N 8 9 1025.0 - 0.0 - - - - - - -
03/05:00am 7.6 N 8 9 1024.7 - 0.0 - - - - - - -
03/04:30am 8.2 N 9 12 1024.5 - 0.0 - - - - - - -
03/04:00am 8.2 NNE 9 11 1024.4 - 0.0 - - - - - - -
03/03:30am 9.1 NE 8 11 1024.5 - 0.0 - - - - - - -
03/03:00am 9.6 NNE 4 8 1024.9 - 0.0 - - - - - - -
03/02:30am 10.3 NW 2 4 1025.4 - 0.0 - - - - - - -
03/02:00am 10.2 E 4 5 1026.0 - 0.0 - - - - - - -
03/01:30am 10.5 ESE 6 9 1026.0 - 0.0 - - - - - - -
03/01:00am 11.4 SSE 8 10 1026.0 - 0.0 - - - - - - -
03/12:30am 10.6 SE 8 10 1026.1 - 0.0 - - - - - - -
03/12:00am 11.6 SSE 9 11 1026.3 - 0.0 - - - - - - -
 
Date/Time
CST
Temp

°C
Wind Pressure Rain
since 9am
mm
Weather Cloud Vis
km
Sea
Height
m
Swell
Dir
 
Speed
knots
Gust
knots
hPa Trend Height
m
Period
s
Dir
02/11:30pm 11.3 SSE 11 12 1026.5 - 0.0 - - - - - - -
02/11:00pm 11.3 SSE 10 12 1026.6 - 0.0 - - - - - - -
02/10:30pm 11.7 S 13 16 1026.9 - 0.0 - - - - - - -
02/10:00pm 12.0 S 13 16 1026.8 - 0.0 - - - - - - -
02/09:30pm 12.0 S 13 15 1026.9 - 0.0 - - - - - - -
02/09:00pm 11.8 S 9 12 1026.9 - 0.0 - - - - - - -
02/08:30pm 11.6 SSE 11 14 1026.8 - 0.0 - - - - - - -
02/08:00pm 11.5 SSE 13 15 1026.8 - 0.0 - - - - - - -
02/07:30pm 11.3 SSE 12 14 1026.5 - 0.0 - - - - - - -
02/07:00pm 11.4 S 12 15 1026.2 - 0.0 - - - - - - -
02/06:30pm 11.4 S 13 16 1026.0 - 0.0 - - - - - - -
02/06:00pm 11.5 S 15 17 1025.7 - 0.0 - - - - - - -
02/05:30pm 11.9 S 15 17 1025.6 - 0.0 - - - - - - -
02/05:00pm 12.2 S 16 18 1025.5 - 0.0 - - - - - - -
02/04:30pm 12.3 S 9 11 1025.4 - 0.0 - - - - - - -
02/04:00pm 12.8 S 11 13 1025.3 - 0.0 - - - - - - -
02/03:30pm 13.9 SSW 12 14 1025.0 - 0.0 - - - - - - -
02/03:00pm 14.5 SSW 9 11 1025.0 - 0.0 - - - - - - -
02/02:30pm 14.0 S 13 16 1024.9 - 0.0 - - - - - - -
02/02:00pm 14.7 S 13 16 1024.9 - 0.0 - - - - - - -
02/01:30pm 14.0 S 13 15 1024.8 - 0.0 - - - - - - -
02/01:00pm 14.5 S 14 18 1024.7 - 0.0 - - - - - - -
02/12:30pm 14.8 S 15 19 1024.9 - 0.0 - - - - - - -
02/12:00pm 14.4 SSE 15 20 1024.9 - 0.0 - - - - - - -
02/11:30am 14.0 S 16 20 1025.0 - 0.0 - - - - - - -
02/11:00am 14.3 S 16 20 1025.1 - 0.0 - - - - - - -
02/10:30am 13.8 S 18 21 1024.8 - 0.0 - - - - - - -
02/10:00am 13.3 S 21 25 1024.7 - 0.0 - - - - - - -
02/09:30am 13.4 S 19 21 1024.6 - 0.0 - - - - - - -
02/09:00am 13.0 S 17 21 1024.4 - 3.6 Haze Partly cloudy 8 - - - -
02/08:30am 12.4 SSW 15 17 1024.5 - 3.6 - - - - - - -
02/08:00am 12.1 S 17 21 1024.1 - 3.6 - - - - - - -
02/07:30am 11.7 SSW 18 20 1023.4 - 3.6 - - - - - - -
02/07:00am 11.6 S 19 25 1022.8 - 3.6 - - - - - - -
02/06:30am 11.3 S 20 24 1022.3 - 3.6 - - - - - - -
02/06:00am 11.5 S 19 23 1021.6 - 3.6 - - - - - - -
02/05:30am 11.3 S 19 23 1021.3 - 3.6 - - - - - - -
02/05:00am 11.1 S 18 22 1020.9 - 3.6 - - - - - - -
02/04:30am 11.0 SSW 22 26 1020.5 - 3.6 - - - - - - -
02/04:00am 10.9 SSW 21 25 1020.0 - 3.6 - - - - - - -
02/03:41am 9.9 SSW 18 28 1019.9 - 3.6 - - - - - - -
02/03:30am 10.6 SSW 21 26 1019.8 - 3.4 - - - - - - -
02/03:00am 10.6 S 21 27 1019.4 - 3.4 - - - - - - -
02/02:30am 11.1 SSW 23 29 1019.4 - 3.4 - - - - - - -
02/02:24am 11.1 SSW 22 28 1019.3 - 3.4 - - - - - - -
02/02:00am 10.5 SW 22 29 1019.3 - 3.4 - - - - - - -
02/01:30am 11.0 SSW 21 25 1019.1 - 3.4 - - - - - - -
02/01:00am 11.1 SSW 23 28 1018.7 - 3.4 - - - - - - -
02/12:42am 10.5 SSW 24 30 1018.7 - 3.4 - - - - - - -
02/12:30am 11.0 WSW 19 31 1018.7 - 3.4 - - - - - - -
02/12:24am 11.2 WSW 18 28 1018.8 - 3.4 - - - - - - -
02/12:00am 11.1 SW 21 28 1018.6 - 3.4 - - - - - - -
 
Date/Time
CST
Temp

°C
Wind Pressure Rain
since 9am
mm
Weather Cloud Vis
km
Sea
Height
m
Swell
Dir
 
Speed
knots
Gust
knots
hPa Trend Height
m
Period
s
Dir
01/11:30pm 11.0 SW 24 30 1018.3 - 3.4 - - - - - - -
01/11:06pm 10.8 SW 20 24 1018.1 - 3.4 - - - - - - -
01/11:00pm 10.2 W 13 20 1018.4 - 3.4 - - - - - - -
01/10:50pm 10.4 WSW 16 22 1018.3 - 3.4 - - - - - - -
01/10:32pm 10.3 SSW 20 30 1017.9 - 2.8 - - - - - - -
01/10:30pm 10.1 SSW 19 26 1018.0 - 2.8 - - - - - - -
01/10:24pm 10.8 SSW 20 26 1017.9 - 2.6 - - - - - - -
01/10:00pm 10.2 W 14 19 1017.9 - 2.6 - - - - - - -
01/09:33pm 10.5 WSW 15 25 1017.7 - 2.6 - - - - - - -
01/09:30pm 10.4 WSW 14 22 1017.8 - 2.6 - - - - - - -
01/09:00pm 10.6 SW 21 26 1017.3 - 2.6 - - - - - - -
01/08:56pm 10.6 SW 21 26 1017.3 - 2.6 - - - - - - -
01/08:42pm 10.3 WSW 16 27 1017.2 - 2.6 - - - - - - -
01/08:30pm 10.2 W 17 23 1017.1 - 2.6 - - - - - - -
01/08:00pm 9.8 W 12 18 1016.8 - 2.2 - - - - - - -
01/07:30pm 10.0 WSW 13 18 1016.5 - 1.8 - - - - - - -
01/07:23pm 10.1 WSW 18 28 1016.5 - 1.8 - - - - - - -
01/07:08pm 10.8 WSW 19 27 1016.3 - 1.6 - - - - - - -
01/07:00pm 10.8 W 11 16 1016.2 - 1.6 - - - - - - -
01/06:30pm 11.1 W 12 16 1015.4 - 1.6 - - - - - - -
01/06:00pm 10.3 NW 9 12 1015.3 - 1.6 - - - - - - -
01/05:30pm 11.0 W 7 9 1015.0 - 0.6 - - - - - - -
01/05:00pm 12.0 WSW 10 13 1014.7 - 0.0 - - - - - - -
01/04:30pm 12.7 W 7 11 1014.2 - 0.0 - - - - - - -
01/04:00pm 12.4 WNW 9 12 1014.2 - 0.0 - - - - - - -
01/03:30pm 12.9 WSW 17 21 1014.0 - 0.0 - - - - - - -
01/03:00pm 13.7 SW 19 23 1013.3 - 0.0 - - - - - - -
01/02:30pm 15.3 SW 18 22 1013.3 - 0.0 - - - - - - -
01/02:00pm 15.2 SW 16 21 1013.2 - 0.0 - - - - - - -
01/01:30pm 14.8 SW 20 25 1013.2 - 0.0 - - - - - - -
01/01:00pm 15.1 SW 18 22 1013.4 - 0.0 - - - - - - -
01/12:30pm 14.4 SW 17 21 1013.5 - 0.0 - - - - - - -
01/12:00pm 15.3 SW 17 21 1013.5 - 0.0 - - - - - - -
01/11:30am 14.7 SW 17 21 1013.5 - 0.0 - - - - - - -
01/11:00am 14.7 WSW 16 21 1013.4 - 0.0 - - - - - - -
01/10:30am 14.5 WSW 16 21 1013.2 - 0.0 - - - - - - -
01/10:00am 14.4 WSW 15 19 1013.2 - 0.0 - - - - - - -
01/09:30am 13.7 WSW 16 19 1013.0 - 0.0 - - - - - - -
01/09:00am 13.5 W 12 15 1012.8 - 4.2 Haze Partly cloudy 6 - - - -
01/08:30am 12.4 W 11 17 1012.7 - 4.2 - - - - - - -
01/08:00am 11.9 W 10 14 1012.2 - 4.2 - - - - - - -
01/07:30am 12.5 WSW 13 18 1012.1 - 3.8 - - - - - - -
01/07:00am 12.6 W 10 13 1011.9 - 3.8 - - - - - - -
01/06:30am 12.6 W 13 16 1011.4 - 3.8 - - - - - - -
01/06:00am 12.5 W 11 13 1010.9 - 3.8 - - - - - - -
01/05:30am 12.6 W 12 15 1010.8 - 3.8 - - - - - - -
01/05:00am 12.5 W 10 14 1010.5 - 3.8 - - - - - - -
01/04:30am 12.6 W 10 14 1010.3 - 3.8 - - - - - - -
01/04:00am 12.5 W 11 15 1010.2 - 3.8 - - - - - - -
01/03:30am 12.4 W 9 14 1010.1 - 3.8 - - - - - - -
01/03:00am 12.5 W 11 15 1010.4 - 3.8 - - - - - - -
01/02:30am 12.3 WNW 9 13 1010.5 - 3.4 - - - - - - -
01/02:00am 12.1 W 10 14 1011.0 - 3.2 - - - - - - -
01/01:30am 11.9 W 8 11 1010.9 - 2.6 - - - - - - -
01/01:00am 12.0 WNW 10 12 1011.9 - 1.4 - - - - - - -
01/12:30am 12.7 W 14 18 1011.5 - 0.2 - - - - - - -
01/12:00am 13.6 SW 10 12 1010.7 - 0.0 - - - - - - -
 
Date/Time
CST
Temp

°C
Wind Pressure Rain
since 9am
mm
Weather Cloud Vis
km
Sea
Height
m
Swell
Dir
 
Speed
knots
Gust
knots
hPa Trend Height
m
Period
s
Dir
31/11:30pm 13.7 WSW 8 9 1011.1 - 0.0 - - - - - - -
31/11:00pm 13.9 WSW 10 14 1011.0 - 0.0 - - - - - - -
31/10:30pm 14.9 WSW 11 15 1010.3 - 0.0 - - - - - - -
31/10:00pm 14.9 W 8 11 1010.8 - 0.0 - - - - - - -
31/09:30pm 15.0 WNW 12 17 1010.3 - 0.0 - - - - - - -
31/09:00pm 15.2 WNW 7 13 1010.1 - 0.0 - - - - - - -
31/08:30pm 15.2 W 7 10 1010.1 - 0.0 - - - - - - -
31/08:00pm 16.2 W 6 8 1010.3 - 0.0 - - - - - - -
31/07:30pm 16.8 NNW 7 9 1010.4 - 0.0 - - - - - - -
31/07:00pm 17.0 NW 4 7 1009.9 - 0.0 - - - - - - -
31/06:30pm 17.9 NW 5 7 1009.5 - 0.0 - - - - - - -
31/06:00pm 19.0 W 11 15 1010.0 - 0.0 - - - - - - -
31/05:30pm 20.9 N 8 11 1009.3 - 0.0 - - - - - - -
31/05:00pm 21.8 N 11 17 1009.2 - 0.0 - - - - - - -
31/04:30pm 22.9 N 11 15 1009.5 - 0.0 - - - - - - -
31/04:00pm 22.1 N 14 22 1009.2 - 0.0 - - - - - - -
31/03:30pm 22.6 N 15 23 1008.7 - 0.0 - - - - - - -
31/03:00pm 22.9 NNW 15 22 1009.3 - 0.0 - - - - - - -
31/02:30pm 22.7 NNW 19 27 1009.8 - 0.0 - - - - - - -
31/02:00pm 22.2 NNW 19 29 1010.4 - 0.0 - - - - - - -
31/01:51pm 21.8 NW 19 29 1010.5 - 0.0 - - - - - - -
31/01:30pm 21.8 NW 21 28 1010.6 - 0.0 - - - - - - -
31/01:00pm 22.0 NW 26 34 1010.6 - 0.0 - - - - - - -
31/12:34pm 22.2 NW 26 36 1010.8 - 0.0 - - - - - - -
31/12:30pm 22.2 NW 28 36 1010.8 - 0.0 - - - - - - -

Other Formats:

Comma delimited format used in spreadsheet applications
http://www.bom.gov.au/fwo/IDS60701/IDS60701.94677.axf

JavaScript Object Notation format (JSON) in row-major order
http://www.bom.gov.au/fwo/IDS60701/IDS60701.94677.json